sensor_id;sensor_type;location;lat;lon;timestamp;P1;durP1;ratioP1;P2;durP2;ratioP2
69991;SDS011;57332;51.320;-0.580;2023-07-24T00:01:06;5.38;;;2.53;;
69991;SDS011;57332;51.320;-0.580;2023-07-24T00:03:34;5.18;;;2.70;;
69991;SDS011;57332;51.320;-0.580;2023-07-24T00:06:01;6.00;;;2.50;;
69991;SDS011;57332;51.320;-0.580;2023-07-24T00:08:28;5.43;;;2.42;;
69991;SDS011;57332;51.320;-0.580;2023-07-24T00:10:55;6.00;;;2.45;;
69991;SDS011;57332;51.320;-0.580;2023-07-24T00:13:22;6.38;;;2.30;;
69991;SDS011;57332;51.320;-0.580;2023-07-24T00:15:49;6.85;;;2.40;;
69991;SDS011;57332;51.320;-0.580;2023-07-24T00:18:15;7.97;;;2.80;;
69991;SDS011;57332;51.320;-0.580;2023-07-24T00:20:42;6.53;;;2.40;;
69991;SDS011;57332;51.320;-0.580;2023-07-24T00:23:09;5.50;;;2.50;;
69991;SDS011;57332;51.320;-0.580;2023-07-24T00:25:37;6.70;;;2.17;;
69991;SDS011;57332;51.320;-0.580;2023-07-24T00:28:03;5.70;;;2.28;;
69991;SDS011;57332;51.320;-0.580;2023-07-24T00:30:30;5.72;;;1.90;;
69991;SDS011;57332;51.320;-0.580;2023-07-24T00:32:57;4.47;;;2.38;;
69991;SDS011;57332;51.320;-0.580;2023-07-24T00:35:24;5.90;;;2.30;;
69991;SDS011;57332;51.320;-0.580;2023-07-24T00:37:51;6.65;;;2.55;;
69991;SDS011;57332;51.320;-0.580;2023-07-24T00:40:18;6.53;;;2.20;;
69991;SDS011;57332;51.320;-0.580;2023-07-24T00:42:46;5.97;;;2.42;;
69991;SDS011;57332;51.320;-0.580;2023-07-24T00:45:13;5.60;;;2.22;;
69991;SDS011;57332;51.320;-0.580;2023-07-24T00:47:40;6.28;;;2.08;;
69991;SDS011;57332;51.320;-0.580;2023-07-24T00:50:07;4.95;;;2.38;;
69991;SDS011;57332;51.320;-0.580;2023-07-24T00:52:35;6.72;;;2.30;;
69991;SDS011;57332;51.320;-0.580;2023-07-24T00:55:02;3.95;;;2.20;;
69991;SDS011;57332;51.320;-0.580;2023-07-24T00:57:29;5.65;;;2.42;;
69991;SDS011;57332;51.320;-0.580;2023-07-24T00:59:56;5.55;;;2.58;;
69991;SDS011;57332;51.320;-0.580;2023-07-24T01:02:22;8.60;;;2.30;;
69991;SDS011;57332;51.320;-0.580;2023-07-24T01:04:49;8.20;;;2.15;;
69991;SDS011;57332;51.320;-0.580;2023-07-24T01:07:16;3.90;;;1.92;;
69991;SDS011;57332;51.320;-0.580;2023-07-24T01:09:43;5.75;;;2.08;;
69991;SDS011;57332;51.320;-0.580;2023-07-24T01:12:19;5.25;;;2.28;;
69991;SDS011;57332;51.320;-0.580;2023-07-24T01:14:58;3.97;;;2.45;;
69991;SDS011;57332;51.320;-0.580;2023-07-24T01:17:29;5.15;;;2.10;;
69991;SDS011;57332;51.320;-0.580;2023-07-24T01:19:58;8.25;;;2.25;;
69991;SDS011;57332;51.320;-0.580;2023-07-24T01:27:25;4.80;;;2.05;;
69991;SDS011;57332;51.320;-0.580;2023-07-24T01:29:52;6.53;;;2.28;;
69991;SDS011;57332;51.320;-0.580;2023-07-24T01:32:19;4.68;;;2.55;;
69991;SDS011;57332;51.320;-0.580;2023-07-24T01:34:47;3.38;;;1.83;;
69991;SDS011;57332;51.320;-0.580;2023-07-24T01:37:14;6.60;;;2.40;;
69991;SDS011;57332;51.320;-0.580;2023-07-24T01:39:41;6.28;;;2.33;;
69991;SDS011;57332;51.320;-0.580;2023-07-24T01:42:10;5.20;;;2.25;;
69991;SDS011;57332;51.320;-0.580;2023-07-24T01:44:37;4.75;;;2.13;;
69991;SDS011;57332;51.320;-0.580;2023-07-24T01:47:04;5.55;;;2.50;;
69991;SDS011;57332;51.320;-0.580;2023-07-24T01:49:31;5.93;;;2.38;;
69991;SDS011;57332;51.320;-0.580;2023-07-24T01:51:58;4.70;;;2.20;;
69991;SDS011;57332;51.320;-0.580;2023-07-24T01:54:25;5.68;;;2.22;;
69991;SDS011;57332;51.320;-0.580;2023-07-24T01:56:52;6.72;;;2.00;;
69991;SDS011;57332;51.320;-0.580;2023-07-24T01:59:19;4.63;;;2.40;;
69991;SDS011;57332;51.320;-0.580;2023-07-24T02:01:46;5.75;;;2.00;;
69991;SDS011;57332;51.320;-0.580;2023-07-24T02:04:13;5.03;;;2.65;;
69991;SDS011;57332;51.320;-0.580;2023-07-24T02:06:40;7.32;;;2.05;;
69991;SDS011;57332;51.320;-0.580;2023-07-24T02:09:06;4.75;;;2.33;;
69991;SDS011;57332;51.320;-0.580;2023-07-24T02:11:33;5.25;;;2.08;;
69991;SDS011;57332;51.320;-0.580;2023-07-24T02:14:00;5.35;;;2.33;;
69991;SDS011;57332;51.320;-0.580;2023-07-24T02:16:27;5.40;;;2.20;;
69991;SDS011;57332;51.320;-0.580;2023-07-24T02:18:55;4.80;;;2.60;;
69991;SDS011;57332;51.320;-0.580;2023-07-24T02:21:22;4.57;;;2.15;;
69991;SDS011;57332;51.320;-0.580;2023-07-24T02:23:49;5.18;;;2.22;;
69991;SDS011;57332;51.320;-0.580;2023-07-24T02:26:15;7.95;;;2.45;;
69991;SDS011;57332;51.320;-0.580;2023-07-24T02:28:42;5.80;;;2.72;;
69991;SDS011;57332;51.320;-0.580;2023-07-24T02:31:09;6.43;;;2.17;;
69991;SDS011;57332;51.320;-0.580;2023-07-24T02:33:36;6.68;;;2.15;;
69991;SDS011;57332;51.320;-0.580;2023-07-24T02:36:03;4.40;;;1.77;;
69991;SDS011;57332;51.320;-0.580;2023-07-24T02:38:30;5.38;;;2.50;;
69991;SDS011;57332;51.320;-0.580;2023-07-24T02:40:57;5.05;;;2.22;;
69991;SDS011;57332;51.320;-0.580;2023-07-24T02:43:27;7.15;;;2.20;;
69991;SDS011;57332;51.320;-0.580;2023-07-24T02:45:53;3.85;;;2.00;;
69991;SDS011;57332;51.320;-0.580;2023-07-24T02:48:20;3.80;;;1.80;;
69991;SDS011;57332;51.320;-0.580;2023-07-24T02:50:47;4.47;;;1.85;;
69991;SDS011;57332;51.320;-0.580;2023-07-24T02:53:15;7.25;;;2.10;;
69991;SDS011;57332;51.320;-0.580;2023-07-24T02:55:42;4.53;;;2.13;;
69991;SDS011;57332;51.320;-0.580;2023-07-24T02:58:13;5.78;;;2.08;;
69991;SDS011;57332;51.320;-0.580;2023-07-24T03:00:40;5.80;;;2.45;;
69991;SDS011;57332;51.320;-0.580;2023-07-24T03:03:07;3.45;;;2.20;;
69991;SDS011;57332;51.320;-0.580;2023-07-24T03:05:34;5.68;;;2.00;;
69991;SDS011;57332;51.320;-0.580;2023-07-24T03:08:01;6.60;;;1.95;;
69991;SDS011;57332;51.320;-0.580;2023-07-24T03:10:28;5.25;;;2.13;;
69991;SDS011;57332;51.320;-0.580;2023-07-24T03:12:55;7.60;;;2.38;;
69991;SDS011;57332;51.320;-0.580;2023-07-24T03:15:22;4.15;;;1.70;;
69991;SDS011;57332;51.320;-0.580;2023-07-24T03:17:49;4.82;;;2.08;;
69991;SDS011;57332;51.320;-0.580;2023-07-24T03:20:17;3.92;;;1.85;;
69991;SDS011;57332;51.320;-0.580;2023-07-24T03:22:44;5.22;;;2.17;;
69991;SDS011;57332;51.320;-0.580;2023-07-24T03:25:11;5.03;;;2.03;;
69991;SDS011;57332;51.320;-0.580;2023-07-24T03:27:38;4.88;;;1.67;;
69991;SDS011;57332;51.320;-0.580;2023-07-24T03:30:05;5.40;;;2.17;;
69991;SDS011;57332;51.320;-0.580;2023-07-24T03:32:33;4.00;;;1.90;;
69991;SDS011;57332;51.320;-0.580;2023-07-24T03:34:59;4.15;;;1.80;;
69991;SDS011;57332;51.320;-0.580;2023-07-24T03:37:26;3.78;;;2.00;;
69991;SDS011;57332;51.320;-0.580;2023-07-24T03:39:53;4.93;;;1.80;;
69991;SDS011;57332;51.320;-0.580;2023-07-24T03:42:26;9.02;;;2.00;;
69991;SDS011;57332;51.320;-0.580;2023-07-24T03:44:54;5.40;;;2.35;;
69991;SDS011;57332;51.320;-0.580;2023-07-24T03:47:21;10.20;;;2.17;;
69991;SDS011;57332;51.320;-0.580;2023-07-24T03:49:48;5.32;;;2.10;;
69991;SDS011;57332;51.320;-0.580;2023-07-24T03:52:15;5.50;;;1.75;;
69991;SDS011;57332;51.320;-0.580;2023-07-24T03:54:42;4.72;;;1.92;;
69991;SDS011;57332;51.320;-0.580;2023-07-24T03:57:09;6.05;;;2.30;;
69991;SDS011;57332;51.320;-0.580;2023-07-24T03:59:36;5.10;;;2.20;;
69991;SDS011;57332;51.320;-0.580;2023-07-24T04:02:03;6.53;;;1.90;;
69991;SDS011;57332;51.320;-0.580;2023-07-24T04:04:31;5.88;;;2.15;;
69991;SDS011;57332;51.320;-0.580;2023-07-24T04:06:58;4.72;;;2.05;;
69991;SDS011;57332;51.320;-0.580;2023-07-24T04:09:26;6.32;;;2.45;;
69991;SDS011;57332;51.320;-0.580;2023-07-24T04:11:53;5.40;;;2.10;;
69991;SDS011;57332;51.320;-0.580;2023-07-24T04:14:19;5.25;;;1.77;;
69991;SDS011;57332;51.320;-0.580;2023-07-24T04:16:46;4.57;;;1.75;;
69991;SDS011;57332;51.320;-0.580;2023-07-24T04:19:14;3.28;;;1.73;;
69991;SDS011;57332;51.320;-0.580;2023-07-24T04:21:41;7.15;;;2.13;;
69991;SDS011;57332;51.320;-0.580;2023-07-24T04:24:07;5.60;;;2.50;;
69991;SDS011;57332;51.320;-0.580;2023-07-24T04:26:34;5.47;;;2.50;;
69991;SDS011;57332;51.320;-0.580;2023-07-24T04:29:03;5.82;;;2.35;;
69991;SDS011;57332;51.320;-0.580;2023-07-24T04:31:30;4.45;;;2.28;;
69991;SDS011;57332;51.320;-0.580;2023-07-24T04:33:57;7.15;;;2.05;;
69991;SDS011;57332;51.320;-0.580;2023-07-24T04:36:24;4.30;;;2.10;;
69991;SDS011;57332;51.320;-0.580;2023-07-24T04:38:51;9.07;;;2.92;;
69991;SDS011;57332;51.320;-0.580;2023-07-24T04:41:18;5.75;;;2.30;;
69991;SDS011;57332;51.320;-0.580;2023-07-24T04:43:45;6.57;;;2.40;;
69991;SDS011;57332;51.320;-0.580;2023-07-24T04:46:11;10.32;;;2.10;;
69991;SDS011;57332;51.320;-0.580;2023-07-24T04:48:38;5.35;;;2.20;;
69991;SDS011;57332;51.320;-0.580;2023-07-24T04:51:05;5.63;;;1.90;;
69991;SDS011;57332;51.320;-0.580;2023-07-24T04:53:32;6.75;;;2.30;;
69991;SDS011;57332;51.320;-0.580;2023-07-24T04:55:59;4.85;;;2.22;;
69991;SDS011;57332;51.320;-0.580;2023-07-24T04:58:26;5.45;;;2.17;;
69991;SDS011;57332;51.320;-0.580;2023-07-24T05:00:53;6.43;;;2.70;;
69991;SDS011;57332;51.320;-0.580;2023-07-24T05:03:20;4.15;;;2.17;;
69991;SDS011;57332;51.320;-0.580;2023-07-24T05:05:56;4.43;;;1.88;;
69991;SDS011;57332;51.320;-0.580;2023-07-24T05:08:23;4.00;;;2.33;;
69991;SDS011;57332;51.320;-0.580;2023-07-24T05:10:53;5.75;;;2.08;;
69991;SDS011;57332;51.320;-0.580;2023-07-24T05:13:20;4.10;;;2.15;;
69991;SDS011;57332;51.320;-0.580;2023-07-24T05:15:47;3.58;;;2.20;;
69991;SDS011;57332;51.320;-0.580;2023-07-24T05:18:15;4.55;;;1.95;;
69991;SDS011;57332;51.320;-0.580;2023-07-24T05:20:45;4.97;;;1.90;;
69991;SDS011;57332;51.320;-0.580;2023-07-24T05:25:40;4.60;;;1.90;;
69991;SDS011;57332;51.320;-0.580;2023-07-24T05:28:07;5.80;;;2.00;;
69991;SDS011;57332;51.320;-0.580;2023-07-24T05:30:34;5.60;;;2.00;;
69991;SDS011;57332;51.320;-0.580;2023-07-24T05:33:01;3.97;;;2.15;;
69991;SDS011;57332;51.320;-0.580;2023-07-24T05:35:28;6.15;;;1.80;;
69991;SDS011;57332;51.320;-0.580;2023-07-24T05:37:55;5.45;;;1.83;;
69991;SDS011;57332;51.320;-0.580;2023-07-24T05:40:22;4.15;;;1.80;;
69991;SDS011;57332;51.320;-0.580;2023-07-24T05:42:49;4.88;;;2.03;;
69991;SDS011;57332;51.320;-0.580;2023-07-24T05:45:16;4.03;;;1.98;;
69991;SDS011;57332;51.320;-0.580;2023-07-24T05:47:43;4.80;;;1.73;;
69991;SDS011;57332;51.320;-0.580;2023-07-24T05:50:10;3.08;;;1.73;;
69991;SDS011;57332;51.320;-0.580;2023-07-24T05:52:36;4.93;;;2.15;;
69991;SDS011;57332;51.320;-0.580;2023-07-24T05:55:03;5.07;;;2.00;;
69991;SDS011;57332;51.320;-0.580;2023-07-24T05:57:30;4.80;;;1.80;;
69991;SDS011;57332;51.320;-0.580;2023-07-24T05:59:57;4.90;;;2.10;;
69991;SDS011;57332;51.320;-0.580;2023-07-24T06:02:24;5.47;;;2.30;;
69991;SDS011;57332;51.320;-0.580;2023-07-24T06:04:51;3.90;;;1.92;;
69991;SDS011;57332;51.320;-0.580;2023-07-24T06:07:18;5.50;;;2.35;;
69991;SDS011;57332;51.320;-0.580;2023-07-24T06:09:45;7.28;;;1.90;;
69991;SDS011;57332;51.320;-0.580;2023-07-24T06:12:12;5.38;;;1.80;;
69991;SDS011;57332;51.320;-0.580;2023-07-24T06:14:39;5.13;;;2.03;;
69991;SDS011;57332;51.320;-0.580;2023-07-24T06:17:06;5.43;;;2.05;;
69991;SDS011;57332;51.320;-0.580;2023-07-24T06:19:32;4.45;;;2.10;;
69991;SDS011;57332;51.320;-0.580;2023-07-24T06:21:59;3.97;;;2.05;;
69991;SDS011;57332;51.320;-0.580;2023-07-24T06:24:26;6.97;;;1.80;;
69991;SDS011;57332;51.320;-0.580;2023-07-24T06:26:53;3.08;;;1.90;;
69991;SDS011;57332;51.320;-0.580;2023-07-24T06:29:20;4.15;;;1.83;;
69991;SDS011;57332;51.320;-0.580;2023-07-24T06:31:49;5.70;;;2.42;;
69991;SDS011;57332;51.320;-0.580;2023-07-24T06:34:16;4.72;;;2.20;;
69991;SDS011;57332;51.320;-0.580;2023-07-24T06:36:43;5.03;;;1.98;;
69991;SDS011;57332;51.320;-0.580;2023-07-24T06:39:10;4.88;;;1.80;;
69991;SDS011;57332;51.320;-0.580;2023-07-24T06:41:37;6.63;;;1.77;;
69991;SDS011;57332;51.320;-0.580;2023-07-24T06:44:04;4.10;;;2.17;;
69991;SDS011;57332;51.320;-0.580;2023-07-24T06:46:31;3.15;;;1.73;;
69991;SDS011;57332;51.320;-0.580;2023-07-24T06:48:58;3.08;;;1.75;;
69991;SDS011;57332;51.320;-0.580;2023-07-24T06:51:25;4.43;;;2.13;;
69991;SDS011;57332;51.320;-0.580;2023-07-24T06:53:52;3.60;;;1.90;;
69991;SDS011;57332;51.320;-0.580;2023-07-24T06:56:19;2.72;;;1.63;;
69991;SDS011;57332;51.320;-0.580;2023-07-24T06:58:46;3.92;;;1.80;;
69991;SDS011;57332;51.320;-0.580;2023-07-24T07:01:13;4.05;;;1.65;;
69991;SDS011;57332;51.320;-0.580;2023-07-24T07:03:40;4.05;;;1.75;;
69991;SDS011;57332;51.320;-0.580;2023-07-24T07:06:07;3.53;;;1.83;;
69991;SDS011;57332;51.320;-0.580;2023-07-24T07:08:53;5.25;;;1.90;;
69991;SDS011;57332;51.320;-0.580;2023-07-24T07:11:20;2.97;;;1.92;;
69991;SDS011;57332;51.320;-0.580;2023-07-24T07:13:47;3.08;;;1.77;;
69991;SDS011;57332;51.320;-0.580;2023-07-24T07:16:13;3.53;;;1.83;;
69991;SDS011;57332;51.320;-0.580;2023-07-24T07:18:40;3.35;;;1.98;;
69991;SDS011;57332;51.320;-0.580;2023-07-24T07:21:07;2.65;;;1.60;;
69991;SDS011;57332;51.320;-0.580;2023-07-24T07:23:34;4.47;;;2.10;;
69991;SDS011;57332;51.320;-0.580;2023-07-24T07:26:01;4.20;;;2.05;;
69991;SDS011;57332;51.320;-0.580;2023-07-24T07:28:28;3.58;;;2.10;;
69991;SDS011;57332;51.320;-0.580;2023-07-24T07:30:55;4.43;;;2.22;;
69991;SDS011;57332;51.320;-0.580;2023-07-24T07:33:22;4.00;;;1.65;;
69991;SDS011;57332;51.320;-0.580;2023-07-24T07:35:50;4.10;;;1.80;;
69991;SDS011;57332;51.320;-0.580;2023-07-24T07:38:17;3.20;;;1.90;;
69991;SDS011;57332;51.320;-0.580;2023-07-24T07:40:44;3.40;;;2.08;;
69991;SDS011;57332;51.320;-0.580;2023-07-24T07:43:11;5.88;;;2.10;;
69991;SDS011;57332;51.320;-0.580;2023-07-24T07:45:38;5.15;;;2.13;;
69991;SDS011;57332;51.320;-0.580;2023-07-24T07:48:05;4.82;;;1.92;;
69991;SDS011;57332;51.320;-0.580;2023-07-24T07:50:32;3.63;;;2.15;;
69991;SDS011;57332;51.320;-0.580;2023-07-24T07:52:58;3.80;;;1.90;;
69991;SDS011;57332;51.320;-0.580;2023-07-24T07:55:25;4.97;;;2.28;;
69991;SDS011;57332;51.320;-0.580;2023-07-24T07:57:52;3.65;;;2.10;;
69991;SDS011;57332;51.320;-0.580;2023-07-24T08:00:19;4.00;;;2.30;;
69991;SDS011;57332;51.320;-0.580;2023-07-24T08:02:46;4.43;;;2.20;;
69991;SDS011;57332;51.320;-0.580;2023-07-24T08:05:13;4.15;;;1.85;;
69991;SDS011;57332;51.320;-0.580;2023-07-24T08:07:46;4.47;;;2.20;;
69991;SDS011;57332;51.320;-0.580;2023-07-24T08:10:13;5.65;;;2.20;;
69991;SDS011;57332;51.320;-0.580;2023-07-24T08:12:43;6.13;;;1.92;;
69991;SDS011;57332;51.320;-0.580;2023-07-24T08:15:10;6.20;;;2.33;;
69991;SDS011;57332;51.320;-0.580;2023-07-24T08:17:37;5.13;;;2.20;;
69991;SDS011;57332;51.320;-0.580;2023-07-24T08:20:04;5.63;;;2.63;;
69991;SDS011;57332;51.320;-0.580;2023-07-24T08:22:31;6.40;;;2.20;;
69991;SDS011;57332;51.320;-0.580;2023-07-24T08:24:58;5.10;;;2.08;;
69991;SDS011;57332;51.320;-0.580;2023-07-24T08:27:25;5.30;;;1.90;;
69991;SDS011;57332;51.320;-0.580;2023-07-24T08:29:52;3.38;;;2.10;;
69991;SDS011;57332;51.320;-0.580;2023-07-24T08:32:19;6.22;;;2.40;;
69991;SDS011;57332;51.320;-0.580;2023-07-24T08:34:47;3.90;;;1.95;;
69991;SDS011;57332;51.320;-0.580;2023-07-24T08:37:14;4.57;;;2.03;;
69991;SDS011;57332;51.320;-0.580;2023-07-24T08:39:41;4.60;;;2.20;;
69991;SDS011;57332;51.320;-0.580;2023-07-24T08:42:11;3.45;;;2.20;;
69991;SDS011;57332;51.320;-0.580;2023-07-24T08:44:39;4.10;;;2.20;;
69991;SDS011;57332;51.320;-0.580;2023-07-24T08:47:06;4.03;;;2.22;;
69991;SDS011;57332;51.320;-0.580;2023-07-24T08:49:36;4.43;;;2.40;;
69991;SDS011;57332;51.320;-0.580;2023-07-24T08:52:03;3.95;;;2.15;;
69991;SDS011;57332;51.320;-0.580;2023-07-24T08:54:31;3.75;;;2.40;;
69991;SDS011;57332;51.320;-0.580;2023-07-24T08:56:59;4.22;;;2.00;;
69991;SDS011;57332;51.320;-0.580;2023-07-24T08:59:26;3.15;;;1.60;;
69991;SDS011;57332;51.320;-0.580;2023-07-24T09:01:54;2.55;;;1.02;;
69991;SDS011;57332;51.320;-0.580;2023-07-24T09:04:21;2.28;;;1.05;;
69991;SDS011;57332;51.320;-0.580;2023-07-24T09:06:48;1.27;;;0.98;;
69991;SDS011;57332;51.320;-0.580;2023-07-24T09:09:16;1.88;;;1.00;;
69991;SDS011;57332;51.320;-0.580;2023-07-24T09:11:50;1.38;;;0.80;;
69991;SDS011;57332;51.320;-0.580;2023-07-24T09:14:21;1.83;;;0.80;;
69991;SDS011;57332;51.320;-0.580;2023-07-24T09:16:48;1.80;;;0.80;;
69991;SDS011;57332;51.320;-0.580;2023-07-24T09:19:18;1.20;;;0.60;;
69991;SDS011;57332;51.320;-0.580;2023-07-24T09:21:52;1.30;;;0.82;;
69991;SDS011;57332;51.320;-0.580;2023-07-24T09:24:20;1.00;;;0.57;;
69991;SDS011;57332;51.320;-0.580;2023-07-24T09:26:50;1.88;;;0.70;;
69991;SDS011;57332;51.320;-0.580;2023-07-24T09:29:17;2.33;;;0.95;;
69991;SDS011;57332;51.320;-0.580;2023-07-24T09:31:45;1.55;;;0.80;;
69991;SDS011;57332;51.320;-0.580;2023-07-24T09:34:15;1.52;;;0.82;;
69991;SDS011;57332;51.320;-0.580;2023-07-24T09:36:42;1.73;;;0.68;;
69991;SDS011;57332;51.320;-0.580;2023-07-24T09:39:10;1.80;;;1.17;;
69991;SDS011;57332;51.320;-0.580;2023-07-24T09:41:39;2.25;;;1.50;;
69991;SDS011;57332;51.320;-0.580;2023-07-24T09:44:07;1.40;;;0.75;;
69991;SDS011;57332;51.320;-0.580;2023-07-24T09:46:34;0.80;;;0.50;;
69991;SDS011;57332;51.320;-0.580;2023-07-24T09:49:13;1.00;;;0.60;;
69991;SDS011;57332;51.320;-0.580;2023-07-24T09:51:40;0.73;;;0.60;;
69991;SDS011;57332;51.320;-0.580;2023-07-24T09:54:15;1.27;;;0.57;;
69991;SDS011;57332;51.320;-0.580;2023-07-24T09:56:47;0.70;;;0.40;;
69991;SDS011;57332;51.320;-0.580;2023-07-24T09:59:25;1.77;;;0.57;;
69991;SDS011;57332;51.320;-0.580;2023-07-24T10:01:53;1.55;;;0.82;;
69991;SDS011;57332;51.320;-0.580;2023-07-24T10:04:21;2.10;;;0.70;;
69991;SDS011;57332;51.320;-0.580;2023-07-24T10:06:48;2.42;;;0.80;;
69991;SDS011;57332;51.320;-0.580;2023-07-24T10:09:15;0.93;;;0.50;;
69991;SDS011;57332;51.320;-0.580;2023-07-24T10:11:42;1.35;;;0.75;;
69991;SDS011;57332;51.320;-0.580;2023-07-24T10:14:09;1.55;;;0.52;;
69991;SDS011;57332;51.320;-0.580;2023-07-24T10:16:37;1.30;;;0.70;;
69991;SDS011;57332;51.320;-0.580;2023-07-24T10:19:12;1.38;;;0.60;;
69991;SDS011;57332;51.320;-0.580;2023-07-24T10:21:44;1.35;;;0.60;;
69991;SDS011;57332;51.320;-0.580;2023-07-24T10:24:11;0.65;;;0.40;;
69991;SDS011;57332;51.320;-0.580;2023-07-24T10:26:47;0.77;;;0.65;;
69991;SDS011;57332;51.320;-0.580;2023-07-24T10:29:14;0.63;;;0.63;;
69991;SDS011;57332;51.320;-0.580;2023-07-24T10:31:41;0.80;;;0.40;;
69991;SDS011;57332;51.320;-0.580;2023-07-24T10:34:08;0.73;;;0.63;;
69991;SDS011;57332;51.320;-0.580;2023-07-24T10:36:36;0.80;;;0.40;;
69991;SDS011;57332;51.320;-0.580;2023-07-24T10:39:12;1.75;;;0.90;;
69991;SDS011;57332;51.320;-0.580;2023-07-24T10:41:39;0.80;;;0.30;;
69991;SDS011;57332;51.320;-0.580;2023-07-24T10:44:06;1.55;;;0.73;;
69991;SDS011;57332;51.320;-0.580;2023-07-24T10:46:37;0.30;;;0.30;;
69991;SDS011;57332;51.320;-0.580;2023-07-24T10:49:04;0.47;;;0.40;;
69991;SDS011;57332;51.320;-0.580;2023-07-24T10:51:31;3.45;;;0.77;;
69991;SDS011;57332;51.320;-0.580;2023-07-24T10:54:04;0.60;;;0.47;;
69991;SDS011;57332;51.320;-0.580;2023-07-24T10:56:32;0.45;;;0.35;;
69991;SDS011;57332;51.320;-0.580;2023-07-24T10:59:03;1.17;;;0.50;;
69991;SDS011;57332;51.320;-0.580;2023-07-24T11:03:58;1.35;;;0.60;;
69991;SDS011;57332;51.320;-0.580;2023-07-24T11:06:25;1.05;;;0.50;;
69991;SDS011;57332;51.320;-0.580;2023-07-24T11:08:52;1.73;;;0.70;;
69991;SDS011;57332;51.320;-0.580;2023-07-24T11:11:19;1.13;;;0.75;;
69991;SDS011;57332;51.320;-0.580;2023-07-24T11:13:46;1.02;;;0.70;;
69991;SDS011;57332;51.320;-0.580;2023-07-24T11:16:13;1.67;;;0.75;;
69991;SDS011;57332;51.320;-0.580;2023-07-24T11:18:44;0.73;;;0.70;;
69991;SDS011;57332;51.320;-0.580;2023-07-24T11:21:19;0.60;;;0.50;;
69991;SDS011;57332;51.320;-0.580;2023-07-24T11:23:47;1.48;;;0.60;;
69991;SDS011;57332;51.320;-0.580;2023-07-24T11:26:14;0.98;;;0.70;;
69991;SDS011;57332;51.320;-0.580;2023-07-24T11:28:42;1.70;;;0.52;;
69991;SDS011;57332;51.320;-0.580;2023-07-24T11:31:08;1.40;;;0.43;;
69991;SDS011;57332;51.320;-0.580;2023-07-24T11:33:35;1.00;;;0.28;;
69991;SDS011;57332;51.320;-0.580;2023-07-24T11:36:02;1.02;;;0.45;;
69991;SDS011;57332;51.320;-0.580;2023-07-24T11:38:30;0.52;;;0.40;;
69991;SDS011;57332;51.320;-0.580;2023-07-24T11:40:57;0.50;;;0.50;;
69991;SDS011;57332;51.320;-0.580;2023-07-24T11:43:24;2.33;;;0.85;;
69991;SDS011;57332;51.320;-0.580;2023-07-24T11:45:51;0.90;;;0.55;;
69991;SDS011;57332;51.320;-0.580;2023-07-24T11:48:22;0.63;;;0.40;;
69991;SDS011;57332;51.320;-0.580;2023-07-24T11:50:51;1.10;;;0.70;;
69991;SDS011;57332;51.320;-0.580;2023-07-24T11:53:22;0.80;;;0.60;;
69991;SDS011;57332;51.320;-0.580;2023-07-24T11:58:17;1.05;;;0.60;;
69991;SDS011;57332;51.320;-0.580;2023-07-24T12:00:45;1.45;;;0.70;;
69991;SDS011;57332;51.320;-0.580;2023-07-24T12:03:12;1.73;;;0.70;;
69991;SDS011;57332;51.320;-0.580;2023-07-24T12:05:42;0.73;;;0.70;;
69991;SDS011;57332;51.320;-0.580;2023-07-24T12:08:10;1.00;;;0.60;;
69991;SDS011;57332;51.320;-0.580;2023-07-24T12:10:37;1.05;;;0.80;;
69991;SDS011;57332;51.320;-0.580;2023-07-24T12:13:06;1.25;;;0.80;;
69991;SDS011;57332;51.320;-0.580;2023-07-24T12:15:33;1.80;;;0.82;;
69991;SDS011;57332;51.320;-0.580;2023-07-24T12:18:02;1.33;;;0.80;;
69991;SDS011;57332;51.320;-0.580;2023-07-24T12:20:30;1.05;;;0.75;;
69991;SDS011;57332;51.320;-0.580;2023-07-24T12:22:58;0.70;;;0.70;;
69991;SDS011;57332;51.320;-0.580;2023-07-24T12:25:25;2.22;;;1.30;;
69991;SDS011;57332;51.320;-0.580;2023-07-24T12:27:52;2.63;;;1.83;;
69991;SDS011;57332;51.320;-0.580;2023-07-24T12:30:19;3.30;;;1.77;;
69991;SDS011;57332;51.320;-0.580;2023-07-24T12:32:46;2.13;;;1.50;;
69991;SDS011;57332;51.320;-0.580;2023-07-24T12:35:13;4.47;;;2.53;;
69991;SDS011;57332;51.320;-0.580;2023-07-24T12:37:43;3.95;;;3.28;;
69991;SDS011;57332;51.320;-0.580;2023-07-24T12:40:11;5.15;;;3.05;;
69991;SDS011;57332;51.320;-0.580;2023-07-24T12:42:38;5.68;;;3.15;;
69991;SDS011;57332;51.320;-0.580;2023-07-24T12:45:05;4.90;;;3.00;;
69991;SDS011;57332;51.320;-0.580;2023-07-24T12:47:32;3.55;;;2.45;;
69991;SDS011;57332;51.320;-0.580;2023-07-24T12:50:00;2.42;;;1.63;;
69991;SDS011;57332;51.320;-0.580;2023-07-24T12:52:28;2.33;;;1.42;;
69991;SDS011;57332;51.320;-0.580;2023-07-24T12:54:55;2.55;;;1.48;;
69991;SDS011;57332;51.320;-0.580;2023-07-24T12:57:28;1.45;;;1.02;;
69991;SDS011;57332;51.320;-0.580;2023-07-24T12:59:55;2.95;;;1.42;;
69991;SDS011;57332;51.320;-0.580;2023-07-24T13:02:22;1.80;;;1.20;;
69991;SDS011;57332;51.320;-0.580;2023-07-24T13:04:49;3.03;;;1.00;;
69991;SDS011;57332;51.320;-0.580;2023-07-24T13:07:16;1.73;;;1.30;;
69991;SDS011;57332;51.320;-0.580;2023-07-24T13:09:43;1.60;;;1.10;;
69991;SDS011;57332;51.320;-0.580;2023-07-24T13:12:09;2.10;;;1.10;;
69991;SDS011;57332;51.320;-0.580;2023-07-24T13:14:37;2.45;;;1.30;;
69991;SDS011;57332;51.320;-0.580;2023-07-24T13:17:08;2.45;;;1.10;;
69991;SDS011;57332;51.320;-0.580;2023-07-24T13:19:35;3.25;;;1.50;;
69991;SDS011;57332;51.320;-0.580;2023-07-24T13:22:02;3.45;;;1.80;;
69991;SDS011;57332;51.320;-0.580;2023-07-24T13:24:29;2.10;;;1.30;;
69991;SDS011;57332;51.320;-0.580;2023-07-24T13:26:56;3.08;;;1.33;;
69991;SDS011;57332;51.320;-0.580;2023-07-24T13:29:23;2.17;;;1.20;;
69991;SDS011;57332;51.320;-0.580;2023-07-24T13:31:52;2.25;;;1.50;;
69991;SDS011;57332;51.320;-0.580;2023-07-24T13:34:21;1.77;;;1.10;;
69991;SDS011;57332;51.320;-0.580;2023-07-24T13:36:48;3.03;;;1.23;;
69991;SDS011;57332;51.320;-0.580;2023-07-24T13:39:15;5.07;;;2.00;;
69991;SDS011;57332;51.320;-0.580;2023-07-24T13:41:42;4.25;;;1.80;;
69991;SDS011;57332;51.320;-0.580;2023-07-24T13:44:09;4.78;;;2.17;;
69991;SDS011;57332;51.320;-0.580;2023-07-24T13:46:36;1.92;;;1.33;;
69991;SDS011;57332;51.320;-0.580;2023-07-24T13:49:06;2.10;;;0.95;;
69991;SDS011;57332;51.320;-0.580;2023-07-24T13:51:33;2.65;;;1.10;;
69991;SDS011;57332;51.320;-0.580;2023-07-24T13:54:00;2.38;;;1.58;;
69991;SDS011;57332;51.320;-0.580;2023-07-24T13:56:29;1.45;;;0.90;;
69991;SDS011;57332;51.320;-0.580;2023-07-24T13:58:57;3.20;;;1.20;;
69991;SDS011;57332;51.320;-0.580;2023-07-24T14:01:25;3.40;;;1.02;;
69991;SDS011;57332;51.320;-0.580;2023-07-24T14:03:52;2.45;;;1.30;;
69991;SDS011;57332;51.320;-0.580;2023-07-24T14:06:19;3.42;;;1.30;;
69991;SDS011;57332;51.320;-0.580;2023-07-24T14:08:46;1.65;;;1.27;;
69991;SDS011;57332;51.320;-0.580;2023-07-24T14:11:13;1.75;;;1.20;;
69991;SDS011;57332;51.320;-0.580;2023-07-24T14:13:40;5.32;;;1.63;;
69991;SDS011;57332;51.320;-0.580;2023-07-24T14:16:07;2.88;;;1.67;;
69991;SDS011;57332;51.320;-0.580;2023-07-24T14:18:34;2.40;;;1.20;;
69991;SDS011;57332;51.320;-0.580;2023-07-24T14:21:01;3.13;;;1.70;;
69991;SDS011;57332;51.320;-0.580;2023-07-24T14:23:28;3.78;;;1.60;;
69991;SDS011;57332;51.320;-0.580;2023-07-24T14:25:55;1.80;;;1.33;;
69991;SDS011;57332;51.320;-0.580;2023-07-24T14:28:22;3.42;;;1.35;;
69991;SDS011;57332;51.320;-0.580;2023-07-24T14:30:48;3.95;;;1.45;;
69991;SDS011;57332;51.320;-0.580;2023-07-24T14:33:15;3.35;;;1.55;;
69991;SDS011;57332;51.320;-0.580;2023-07-24T14:35:42;3.05;;;1.02;;
69991;SDS011;57332;51.320;-0.580;2023-07-24T14:38:09;3.88;;;1.30;;
69991;SDS011;57332;51.320;-0.580;2023-07-24T14:40:36;2.30;;;1.10;;
69991;SDS011;57332;51.320;-0.580;2023-07-24T14:43:03;2.05;;;1.20;;
69991;SDS011;57332;51.320;-0.580;2023-07-24T14:45:33;3.80;;;1.30;;
69991;SDS011;57332;51.320;-0.580;2023-07-24T14:48:00;1.42;;;1.10;;